sensor_id;sensor_type;location;lat;lon;timestamp;pressure;altitude;pressure_sealevel;temperature;humidity
9855;BME280;4966;48.112;9.282;2023-02-21T00:01:47;95218.25;;;0.93;79.11
9855;BME280;4966;48.112;9.282;2023-02-21T00:04:30;95218.25;;;0.93;nan
9855;BME280;4966;48.112;9.282;2023-02-21T00:07:14;95216.63;;;0.87;78.74
9855;BME280;4966;48.112;9.282;2023-02-21T00:09:58;95212.63;;;0.84;78.67
9855;BME280;4966;48.112;9.282;2023-02-21T00:12:42;95219.00;;;0.73;79.19
9855;BME280;4966;48.112;9.282;2023-02-21T00:15:39;95211.53;;;0.85;78.67
9855;BME280;4966;48.112;9.282;2023-02-21T00:18:43;95211.78;;;0.89;77.80
9855;BME280;4966;48.112;9.282;2023-02-21T00:21:38;95208.28;;;0.78;78.14
9855;BME280;4966;48.112;9.282;2023-02-21T00:24:22;95215.50;;;0.67;78.24
9855;BME280;4966;48.112;9.282;2023-02-21T00:27:06;95202.69;;;0.84;77.56
9855;BME280;4966;48.112;9.282;2023-02-21T00:29:50;95209.88;;;0.74;77.60
9855;BME280;4966;48.112;9.282;2023-02-21T00:32:34;95203.75;;;0.78;77.83
9855;BME280;4966;48.112;9.282;2023-02-21T00:35:18;95199.16;;;0.74;77.57
9855;BME280;4966;48.112;9.282;2023-02-21T00:38:03;95205.09;;;0.86;76.95
9855;BME280;4966;48.112;9.282;2023-02-21T00:40:47;95200.78;;;0.75;77.28
9855;BME280;4966;48.112;9.282;2023-02-21T00:43:34;95208.19;;;0.52;78.28
9855;BME280;4966;48.112;9.282;2023-02-21T00:46:18;95199.94;;;0.64;77.83
9855;BME280;4966;48.112;9.282;2023-02-21T00:49:03;95200.47;;;0.56;78.48
9855;BME280;4966;48.112;9.282;2023-02-21T00:51:47;95197.25;;;0.59;78.54
9855;BME280;4966;48.112;9.282;2023-02-21T00:54:31;95201.25;;;0.51;78.84
9855;BME280;4966;48.112;9.282;2023-02-21T00:57:16;95196.47;;;0.69;78.09
9855;BME280;4966;48.112;9.282;2023-02-21T01:00:00;95200.72;;;0.54;78.26
9855;BME280;4966;48.112;9.282;2023-02-21T01:02:44;95196.69;;;0.52;78.43
9855;BME280;4966;48.112;9.282;2023-02-21T01:05:28;95192.72;;;0.64;77.59
9855;BME280;4966;48.112;9.282;2023-02-21T01:08:12;95199.91;;;0.54;77.75
9855;BME280;4966;48.112;9.282;2023-02-21T01:10:56;95187.84;;;0.46;78.09
9855;BME280;4966;48.112;9.282;2023-02-21T01:13:40;95193.19;;;0.46;77.87
9855;BME280;4966;48.112;9.282;2023-02-21T01:16:28;95187.53;;;0.42;77.67
9855;BME280;4966;48.112;9.282;2023-02-21T01:19:12;95189.38;;;0.32;78.14
9855;BME280;4966;48.112;9.282;2023-02-21T01:21:56;95189.63;;;0.30;78.27
9855;BME280;4966;48.112;9.282;2023-02-21T01:24:40;95177.38;;;0.45;77.22
9855;BME280;4966;48.112;9.282;2023-02-21T01:27:24;95188.63;;;0.41;77.39
9855;BME280;4966;48.112;9.282;2023-02-21T01:30:08;95179.16;;;0.24;78.25
9855;BME280;4966;48.112;9.282;2023-02-21T01:35:27;95185.16;;;0.41;77.44
9855;BME280;4966;48.112;9.282;2023-02-21T01:38:11;95193.13;;;0.36;77.46
9855;BME280;4966;48.112;9.282;2023-02-21T01:40:55;95180.34;;;0.48;77.08
9855;BME280;4966;48.112;9.282;2023-02-21T01:44:36;95188.34;;;0.43;77.08
9855;BME280;4966;48.112;9.282;2023-02-21T01:47:49;95173.25;;;0.16;77.71
9855;BME280;4966;48.112;9.282;2023-02-21T01:50:58;95169.50;;;0.17;78.32
9855;BME280;4966;48.112;9.282;2023-02-21T01:53:44;95161.50;;;0.17;78.42
9855;BME280;4966;48.112;9.282;2023-02-21T01:56:29;95172.28;;;-0.10;79.63
9855;BME280;4966;48.112;9.282;2023-02-21T01:59:13;95166.53;;;0.09;79.00
9855;BME280;4966;48.112;9.282;2023-02-21T02:02:05;95174.00;;;0.07;79.73
9855;BME280;4966;48.112;9.282;2023-02-21T02:04:54;95167.56;;;0.03;79.42
9855;BME280;4966;48.112;9.282;2023-02-21T02:07:38;95161.97;;;0.09;79.24
9855;BME280;4966;48.112;9.282;2023-02-21T02:10:23;95157.41;;;0.05;79.26
9855;BME280;4966;48.112;9.282;2023-02-21T02:16:07;95153.66;;;0.06;78.53
9855;BME280;4966;48.112;9.282;2023-02-21T02:21:52;95151.25;;;0.04;78.60
9855;BME280;4966;48.112;9.282;2023-02-21T02:24:42;95160.69;;;0.17;78.02
9855;BME280;4966;48.112;9.282;2023-02-21T02:33:21;95144.75;;;-0.10;77.82
9855;BME280;4966;48.112;9.282;2023-02-21T02:36:10;95144.81;;;0.00;77.27
9855;BME280;4966;48.112;9.282;2023-02-21T02:38:51;95132.13;;;-0.20;78.14
9855;BME280;4966;48.112;9.282;2023-02-21T02:41:25;95134.53;;;-0.24;78.49
9855;BME280;4966;48.112;9.282;2023-02-21T02:44:03;95134.66;;;0.02;77.40
9855;BME280;4966;48.112;9.282;2023-02-21T02:46:31;95137.06;;;-0.02;77.45
9855;BME280;4966;48.112;9.282;2023-02-21T02:49:08;95130.69;;;0.10;76.63
9855;BME280;4966;48.112;9.282;2023-02-21T02:51:34;95130.59;;;-0.06;76.93
9855;BME280;4966;48.112;9.282;2023-02-21T02:54:00;95136.19;;;-0.12;77.28
9855;BME280;4966;48.112;9.282;2023-02-21T02:56:26;95136.94;;;-0.22;78.15
9855;BME280;4966;48.112;9.282;2023-02-21T02:59:00;95125.09;;;-0.31;78.73
9855;BME280;4966;48.112;9.282;2023-02-21T03:09:25;95132.34;;;-0.27;78.38
9855;BME280;4966;48.112;9.282;2023-02-21T03:15:01;95131.31;;;-0.26;78.67
9855;BME280;4966;48.112;9.282;2023-02-21T03:17:31;95130.19;;;-0.30;78.55
9855;BME280;4966;48.112;9.282;2023-02-21T03:20:02;95129.50;;;-0.10;77.79
9855;BME280;4966;48.112;9.282;2023-02-21T03:22:28;95126.00;;;-0.15;77.37
9855;BME280;4966;48.112;9.282;2023-02-21T03:24:57;95121.22;;;-0.08;76.53
9855;BME280;4966;48.112;9.282;2023-02-21T03:27:24;95130.44;;;-0.31;77.44
9855;BME280;4966;48.112;9.282;2023-02-21T03:29:53;95129.69;;;-0.27;77.21
9855;BME280;4966;48.112;9.282;2023-02-21T03:32:47;95120.91;;;-0.17;77.01
9855;BME280;4966;48.112;9.282;2023-02-21T03:35:11;95121.59;;;-0.37;77.99
9855;BME280;4966;48.112;9.282;2023-02-21T03:37:40;95120.50;;;-0.41;78.17
9855;BME280;4966;48.112;9.282;2023-02-21T03:40:20;95114.53;;;-0.53;78.81
9855;BME280;4966;48.112;9.282;2023-02-21T03:42:48;95113.88;;;-0.33;77.84
9855;BME280;4966;48.112;9.282;2023-02-21T03:45:13;95119.97;;;-0.43;78.52
9855;BME280;4966;48.112;9.282;2023-02-21T03:47:39;95117.88;;;-0.36;78.23
9855;BME280;4966;48.112;9.282;2023-02-21T03:50:04;95121.81;;;-0.44;78.48
9855;BME280;4966;48.112;9.282;2023-02-21T03:52:31;95131.13;;;-0.51;78.55
9855;BME280;4966;48.112;9.282;2023-02-21T03:54:57;95127.16;;;-0.44;78.76
9855;BME280;4966;48.112;9.282;2023-02-21T03:57:22;95127.53;;;-0.30;78.20
9855;BME280;4966;48.112;9.282;2023-02-21T03:59:47;95125.81;;;-0.46;78.52
9855;BME280;4966;48.112;9.282;2023-02-21T04:02:13;95122.66;;;-0.43;78.62
9855;BME280;4966;48.112;9.282;2023-02-21T04:04:38;95129.00;;;-0.49;78.76
9855;BME280;4966;48.112;9.282;2023-02-21T04:07:04;95130.34;;;-0.52;79.07
9855;BME280;4966;48.112;9.282;2023-02-21T04:09:29;95123.41;;;-0.48;78.94
9855;BME280;4966;48.112;9.282;2023-02-21T04:11:55;95117.38;;;-0.33;77.55
9855;BME280;4966;48.112;9.282;2023-02-21T04:14:21;95115.13;;;-0.46;77.81
9855;BME280;4966;48.112;9.282;2023-02-21T04:16:46;95119.47;;;-0.40;77.83
9855;BME280;4966;48.112;9.282;2023-02-21T04:19:12;95116.31;;;-0.27;76.77
9855;BME280;4966;48.112;9.282;2023-02-21T04:21:37;95114.69;;;-0.33;77.00
9855;BME280;4966;48.112;9.282;2023-02-21T04:24:03;95123.34;;;-0.58;77.98
9855;BME280;4966;48.112;9.282;2023-02-21T04:26:28;95119.88;;;-0.58;78.30
9855;BME280;4966;48.112;9.282;2023-02-21T04:28:54;95121.66;;;-0.69;78.50
9855;BME280;4966;48.112;9.282;2023-02-21T04:31:21;95118.59;;;-0.46;77.67
9855;BME280;4966;48.112;9.282;2023-02-21T04:33:46;95111.13;;;-0.44;76.85
9855;BME280;4966;48.112;9.282;2023-02-21T04:36:12;95108.81;;;-0.72;78.47
9855;BME280;4966;48.112;9.282;2023-02-21T04:38:38;95101.56;;;-0.77;78.83
9855;BME280;4966;48.112;9.282;2023-02-21T04:41:04;95108.94;;;-0.57;78.40
9855;BME280;4966;48.112;9.282;2023-02-21T04:43:29;95110.72;;;-0.68;78.64
9855;BME280;4966;48.112;9.282;2023-02-21T04:45:55;95112.41;;;-0.56;78.32
9855;BME280;4966;48.112;9.282;2023-02-21T04:48:21;95109.69;;;-0.61;78.85
9855;BME280;4966;48.112;9.282;2023-02-21T04:50:46;95109.38;;;-0.65;78.99
9855;BME280;4966;48.112;9.282;2023-02-21T04:53:12;95115.06;;;-0.56;78.90
9855;BME280;4966;48.112;9.282;2023-02-21T04:55:37;95113.16;;;-0.61;78.37
9855;BME280;4966;48.112;9.282;2023-02-21T04:58:03;95115.03;;;-0.61;78.46
9855;BME280;4966;48.112;9.282;2023-02-21T05:00:29;95116.72;;;-0.50;77.85
9855;BME280;4966;48.112;9.282;2023-02-21T05:02:54;95112.91;;;-0.59;78.12
9855;BME280;4966;48.112;9.282;2023-02-21T05:05:19;95107.03;;;-0.61;77.73
9855;BME280;4966;48.112;9.282;2023-02-21T05:07:45;95119.88;;;-0.53;77.33
9855;BME280;4966;48.112;9.282;2023-02-21T05:10:10;95107.03;;;-0.61;77.10
9855;BME280;4966;48.112;9.282;2023-02-21T05:12:37;95110.69;;;-0.73;77.83
9855;BME280;4966;48.112;9.282;2023-02-21T05:15:06;95119.72;;;-0.79;78.69
9855;BME280;4966;48.112;9.282;2023-02-21T05:17:31;95096.97;;;-0.81;78.77
9855;BME280;4966;48.112;9.282;2023-02-21T05:19:57;95101.31;;;-0.75;78.90
9855;BME280;4966;48.112;9.282;2023-02-21T05:22:23;95104.03;;;-1.02;80.15
9855;BME280;4966;48.112;9.282;2023-02-21T05:24:48;95100.34;;;-0.96;79.80
9855;BME280;4966;48.112;9.282;2023-02-21T05:27:16;95104.31;;;-0.99;80.07
9855;BME280;4966;48.112;9.282;2023-02-21T05:29:48;95099.97;;;-0.78;78.90
9855;BME280;4966;48.112;9.282;2023-02-21T05:32:16;95089.44;;;-0.90;80.03
9855;BME280;4966;48.112;9.282;2023-02-21T05:34:41;95101.81;;;-0.78;79.62
9855;BME280;4966;48.112;9.282;2023-02-21T05:37:17;95095.13;;;-0.81;79.78
9855;BME280;4966;48.112;9.282;2023-02-21T05:39:45;95099.88;;;-0.88;80.25
9855;BME280;4966;48.112;9.282;2023-02-21T05:42:10;95102.41;;;-0.71;79.61
9855;BME280;4966;48.112;9.282;2023-02-21T05:44:36;95104.34;;;-0.61;78.84
9855;BME280;4966;48.112;9.282;2023-02-21T05:47:01;95111.66;;;-0.84;79.43
9855;BME280;4966;48.112;9.282;2023-02-21T05:49:27;95107.97;;;-0.78;79.18
9855;BME280;4966;48.112;9.282;2023-02-21T05:51:53;95110.69;;;-0.73;79.33
9855;BME280;4966;48.112;9.282;2023-02-21T05:54:20;95105.53;;;-0.79;79.14
9855;BME280;4966;48.112;9.282;2023-02-21T05:56:47;95108.25;;;-0.74;78.91
9855;BME280;4966;48.112;9.282;2023-02-21T05:59:15;95111.44;;;-0.77;78.22
9855;BME280;4966;48.112;9.282;2023-02-21T06:01:41;95111.66;;;-0.84;78.53
9855;BME280;4966;48.112;9.282;2023-02-21T06:04:07;95114.88;;;-0.82;78.84
9855;BME280;4966;48.112;9.282;2023-02-21T06:06:33;95115.00;;;-0.67;77.50
9855;BME280;4966;48.112;9.282;2023-02-21T06:08:59;95118.91;;;-0.79;78.50
9855;BME280;4966;48.112;9.282;2023-02-21T06:11:27;95115.16;;;-0.83;78.60
9855;BME280;4966;48.112;9.282;2023-02-21T06:13:54;95130.66;;;-0.80;78.98
9855;BME280;4966;48.112;9.282;2023-02-21T06:16:21;95126.84;;;-0.57;77.89
9855;BME280;4966;48.112;9.282;2023-02-21T06:18:51;95125.25;;;-0.53;77.52
9855;BME280;4966;48.112;9.282;2023-02-21T06:21:17;95132.75;;;-0.50;77.02
9855;BME280;4966;48.112;9.282;2023-02-21T06:23:42;95126.75;;;-0.68;77.41
9855;BME280;4966;48.112;9.282;2023-02-21T06:26:08;95122.19;;;-0.67;77.79
9855;BME280;4966;48.112;9.282;2023-02-21T06:28:34;95129.69;;;-0.69;78.09
9855;BME280;4966;48.112;9.282;2023-02-21T06:30:59;95126.19;;;-0.70;78.54
9855;BME280;4966;48.112;9.282;2023-02-21T06:33:24;95126.59;;;-0.51;77.26
9855;BME280;4966;48.112;9.282;2023-02-21T06:35:50;95127.81;;;-0.69;78.35
9855;BME280;4966;48.112;9.282;2023-02-21T06:38:15;95133.78;;;-0.56;78.05
9855;BME280;4966;48.112;9.282;2023-02-21T06:40:40;95134.00;;;-0.63;78.47
9855;BME280;4966;48.112;9.282;2023-02-21T06:43:06;95146.47;;;-0.36;77.20
9855;BME280;4966;48.112;9.282;2023-02-21T06:45:31;95135.97;;;-0.48;78.04
9855;BME280;4966;48.112;9.282;2023-02-21T06:47:57;95140.25;;;-0.47;78.17
9855;BME280;4966;48.112;9.282;2023-02-21T06:50:22;95145.13;;;-0.34;77.96
9855;BME280;4966;48.112;9.282;2023-02-21T06:52:48;95145.19;;;-0.29;77.97
9855;BME280;4966;48.112;9.282;2023-02-21T06:55:21;95139.34;;;-0.20;78.09
9855;BME280;4966;48.112;9.282;2023-02-21T06:57:47;95144.84;;;0.05;77.03
9855;BME280;4966;48.112;9.282;2023-02-21T07:00:14;95158.22;;;0.05;76.76
9855;BME280;4966;48.112;9.282;2023-02-21T07:02:40;95141.63;;;0.03;76.89
9855;BME280;4966;48.112;9.282;2023-02-21T07:05:06;95144.31;;;0.03;77.07
9855;BME280;4966;48.112;9.282;2023-02-21T07:07:31;95143.00;;;0.16;77.25
9855;BME280;4966;48.112;9.282;2023-02-21T07:09:56;95143.59;;;0.33;76.89
9855;BME280;4966;48.112;9.282;2023-02-21T07:12:22;95141.50;;;0.40;76.71
9855;BME280;4966;48.112;9.282;2023-02-21T07:14:47;95142.09;;;0.58;76.40
9855;BME280;4966;48.112;9.282;2023-02-21T07:17:13;95150.16;;;0.63;76.14
9855;BME280;4966;48.112;9.282;2023-02-21T07:19:38;95144.00;;;0.68;76.39
9855;BME280;4966;48.112;9.282;2023-02-21T07:22:04;95141.28;;;0.57;76.74
9855;BME280;4966;48.112;9.282;2023-02-21T07:24:30;95144.56;;;0.80;76.14
9855;BME280;4966;48.112;9.282;2023-02-21T07:26:55;95145.94;;;0.93;75.06
9855;BME280;4966;48.112;9.282;2023-02-21T07:29:20;95145.94;;;1.03;75.23
9855;BME280;4966;48.112;9.282;2023-02-21T07:31:46;95137.09;;;1.08;75.18
9855;BME280;4966;48.112;9.282;2023-02-21T07:34:11;95136.31;;;1.12;75.24
9855;BME280;4966;48.112;9.282;2023-02-21T07:36:37;95135.50;;;1.12;75.53
9855;BME280;4966;48.112;9.282;2023-02-21T07:39:04;95144.63;;;1.26;75.81
9855;BME280;4966;48.112;9.282;2023-02-21T07:41:29;95145.97;;;1.34;75.78
9855;BME280;4966;48.112;9.282;2023-02-21T07:43:55;95133.38;;;1.49;75.68
9855;BME280;4966;48.112;9.282;2023-02-21T07:46:25;95134.94;;;1.71;75.21
9855;BME280;4966;48.112;9.282;2023-02-21T07:48:51;95138.41;;;1.82;74.55
9855;BME280;4966;48.112;9.282;2023-02-21T07:51:16;95128.28;;;1.58;76.49
9855;BME280;4966;48.112;9.282;2023-02-21T07:53:42;95131.44;;;1.81;75.83
9855;BME280;4966;48.112;9.282;2023-02-21T07:56:07;95135.19;;;1.90;75.73
9855;BME280;4966;48.112;9.282;2023-02-21T07:58:33;95137.06;;;1.84;76.06
9855;BME280;4966;48.112;9.282;2023-02-21T08:01:02;95127.94;;;1.90;75.81
9855;BME280;4966;48.112;9.282;2023-02-21T08:03:28;95128.41;;;2.13;75.33
9855;BME280;4966;48.112;9.282;2023-02-21T08:05:54;95138.31;;;2.23;74.76
9855;BME280;4966;48.112;9.282;2023-02-21T08:08:19;95128.03;;;2.45;74.31
9855;BME280;4966;48.112;9.282;2023-02-21T08:10:45;95126.69;;;2.43;74.72
9855;BME280;4966;48.112;9.282;2023-02-21T08:13:10;95130.84;;;2.74;73.99
9855;BME280;4966;48.112;9.282;2023-02-21T08:15:35;95131.31;;;2.82;72.77
9855;BME280;4966;48.112;9.282;2023-02-21T08:18:01;95120.47;;;3.02;72.16
9855;BME280;4966;48.112;9.282;2023-02-21T08:20:26;95121.34;;;2.87;71.32
9855;BME280;4966;48.112;9.282;2023-02-21T08:22:52;95126.47;;;3.28;70.63
9855;BME280;4966;48.112;9.282;2023-02-21T08:25:17;95115.56;;;3.44;69.93
9855;BME280;4966;48.112;9.282;2023-02-21T08:27:43;95120.69;;;3.45;69.41
9855;BME280;4966;48.112;9.282;2023-02-21T08:30:11;95121.75;;;3.73;69.52
9855;BME280;4966;48.112;9.282;2023-02-21T08:32:39;95121.38;;;3.85;69.39
9855;BME280;4966;48.112;9.282;2023-02-21T08:35:04;95123.75;;;3.92;69.85
9855;BME280;4966;48.112;9.282;2023-02-21T08:37:32;95126.78;;;4.09;70.32
9855;BME280;4966;48.112;9.282;2023-02-21T08:40:00;95113.22;;;4.43;69.46
9855;BME280;4966;48.112;9.282;2023-02-21T08:42:26;95118.31;;;4.45;69.73
9855;BME280;4966;48.112;9.282;2023-02-21T08:44:51;95116.09;;;4.71;70.03
9855;BME280;4966;48.112;9.282;2023-02-21T08:47:17;95107.94;;;4.95;69.79
9855;BME280;4966;48.112;9.282;2023-02-21T08:49:43;95114.28;;;5.23;69.33
9855;BME280;4966;48.112;9.282;2023-02-21T08:52:11;95107.97;;;5.47;68.67
9855;BME280;4966;48.112;9.282;2023-02-21T08:54:37;95108.56;;;5.44;67.17
9855;BME280;4966;48.112;9.282;2023-02-21T08:57:02;95104.03;;;5.72;66.52
9855;BME280;4966;48.112;9.282;2023-02-21T08:59:28;95101.03;;;6.20;66.26
9855;BME280;4966;48.112;9.282;2023-02-21T09:01:57;95104.75;;;6.52;64.34
9855;BME280;4966;48.112;9.282;2023-02-21T09:04:22;95100.03;;;6.71;63.66
9855;BME280;4966;48.112;9.282;2023-02-21T09:06:50;95094.72;;;6.80;63.80
9855;BME280;4966;48.112;9.282;2023-02-21T09:09:15;95098.53;;;7.01;64.32
9855;BME280;4966;48.112;9.282;2023-02-21T09:11:40;95089.72;;;7.10;64.42
9855;BME280;4966;48.112;9.282;2023-02-21T09:14:11;95091.84;;;7.58;62.73
9855;BME280;4966;48.112;9.282;2023-02-21T09:16:36;95096.41;;;7.80;62.37
9855;BME280;4966;48.112;9.282;2023-02-21T09:19:02;95090.88;;;7.85;62.40
9855;BME280;4966;48.112;9.282;2023-02-21T09:21:32;95086.44;;;7.89;62.91
9855;BME280;4966;48.112;9.282;2023-02-21T09:23:57;95084.50;;;8.12;62.24
9855;BME280;4966;48.112;9.282;2023-02-21T09:26:24;95083.34;;;8.44;61.44
9855;BME280;4966;48.112;9.282;2023-02-21T09:28:50;95082.28;;;8.54;61.81
9855;BME280;4966;48.112;9.282;2023-02-21T09:31:16;95078.31;;;8.60;61.64
9855;BME280;4966;48.112;9.282;2023-02-21T09:33:43;95072.59;;;8.79;61.52
9855;BME280;4966;48.112;9.282;2023-02-21T09:36:09;95079.50;;;9.11;60.74
9855;BME280;4966;48.112;9.282;2023-02-21T09:38:35;95074.72;;;9.26;60.67
9855;BME280;4966;48.112;9.282;2023-02-21T09:41:03;95072.63;;;9.49;60.15
9855;BME280;4966;48.112;9.282;2023-02-21T09:43:33;95069.44;;;9.47;60.21
9855;BME280;4966;48.112;9.282;2023-02-21T09:46:03;95069.25;;;9.52;60.03
9855;BME280;4966;48.112;9.282;2023-02-21T09:48:30;95072.28;;;9.68;60.04
9855;BME280;4966;48.112;9.282;2023-02-21T09:50:58;95064.56;;;9.87;59.24
9855;BME280;4966;48.112;9.282;2023-02-21T09:53:30;95061.91;;;10.17;58.28
9855;BME280;4966;48.112;9.282;2023-02-21T09:55:59;95057.25;;;10.26;57.99
9855;BME280;4966;48.112;9.282;2023-02-21T09:58:28;95061.63;;;10.57;57.28
9855;BME280;4966;48.112;9.282;2023-02-21T10:00:57;95055.69;;;10.55;56.90
9855;BME280;4966;48.112;9.282;2023-02-21T10:03:46;95055.88;;;10.79;56.42
9855;BME280;4966;48.112;9.282;2023-02-21T10:14:48;95046.59;;;11.43;55.17
9855;BME280;4966;48.112;9.282;2023-02-21T10:20:38;95048.81;;;11.62;52.36
9855;BME280;4966;48.112;9.282;2023-02-21T10:23:17;95050.63;;;11.91;54.18
9855;BME280;4966;48.112;9.282;2023-02-21T10:25:45;95051.97;;;12.19;52.33
9855;BME280;4966;48.112;9.282;2023-02-21T10:28:22;95052.41;;;12.33;50.47
9855;BME280;4966;48.112;9.282;2023-02-21T10:30:51;95051.13;;;12.18;49.57
9855;BME280;4966;48.112;9.282;2023-02-21T10:33:19;95048.56;;;12.46;49.09
9855;BME280;4966;48.112;9.282;2023-02-21T10:35:44;95044.81;;;12.39;49.36
9855;BME280;4966;48.112;9.282;2023-02-21T10:38:12;95049.47;;;12.63;47.54
9855;BME280;4966;48.112;9.282;2023-02-21T10:40:44;95046.28;;;12.73;47.54
9855;BME280;4966;48.112;9.282;2023-02-21T10:43:21;95048.88;;;12.94;46.80
9855;BME280;4966;48.112;9.282;2023-02-21T10:48:24;95040.22;;;13.45;45.54
9855;BME280;4966;48.112;9.282;2023-02-21T10:51:12;95052.00;;;13.20;45.71
9855;BME280;4966;48.112;9.282;2023-02-21T10:53:44;95031.91;;;13.69;44.85
9855;BME280;4966;48.112;9.282;2023-02-21T10:58:43;95034.56;;;13.25;44.42
9855;BME280;4966;48.112;9.282;2023-02-21T11:01:18;95030.00;;;13.42;43.84
9855;BME280;4966;48.112;9.282;2023-02-21T11:03:50;95031.72;;;13.22;44.53
9855;BME280;4966;48.112;9.282;2023-02-21T11:06:32;95036.91;;;13.51;44.31
9855;BME280;4966;48.112;9.282;2023-02-21T11:08:58;95022.59;;;13.70;43.58
9855;BME280;4966;48.112;9.282;2023-02-21T11:11:31;95023.13;;;13.76;44.13
9855;BME280;4966;48.112;9.282;2023-02-21T11:14:26;95022.13;;;13.96;44.17
9855;BME280;4966;48.112;9.282;2023-02-21T11:17:14;95012.31;;;13.95;43.94
9855;BME280;4966;48.112;9.282;2023-02-21T11:19:56;95012.34;;;14.27;42.57
9855;BME280;4966;48.112;9.282;2023-02-21T11:27:41;95000.69;;;14.62;43.24
9855;BME280;4966;48.112;9.282;2023-02-21T11:30:17;94996.97;;;14.54;43.25
9855;BME280;4966;48.112;9.282;2023-02-21T11:32:51;94994.66;;;14.40;43.68
9855;BME280;4966;48.112;9.282;2023-02-21T11:37:49;94982.34;;;14.82;42.51
9855;BME280;4966;48.112;9.282;2023-02-21T11:43:24;94982.03;;;15.42;41.50
9855;BME280;4966;48.112;9.282;2023-02-21T11:46:47;94977.69;;;15.60;41.59
9855;BME280;4966;48.112;9.282;2023-02-21T11:48:56;94967.25;;;15.66;40.40
9855;BME280;4966;48.112;9.282;2023-02-21T11:51:46;94962.72;;;15.54;41.36
9855;BME280;4966;48.112;9.282;2023-02-21T11:54:13;94962.09;;;15.64;40.71
9855;BME280;4966;48.112;9.282;2023-02-21T11:56:53;94962.25;;;16.14;40.54
9855;BME280;4966;48.112;9.282;2023-02-21T12:07:46;94921.00;;;24.44;25.71
9855;BME280;4966;48.112;9.282;2023-02-21T12:10:37;94915.00;;;27.10;23.31
9855;BME280;4966;48.112;9.282;2023-02-21T12:19:15;94900.91;;;28.14;20.96
9855;BME280;4966;48.112;9.282;2023-02-21T12:22:26;94893.28;;;28.66;19.51
9855;BME280;4966;48.112;9.282;2023-02-21T12:30:35;94877.47;;;26.33;21.79
9855;BME280;4966;48.112;9.282;2023-02-21T12:44:05;94861.00;;;24.70;22.78
9855;BME280;4966;48.112;9.282;2023-02-21T12:46:39;94857.66;;;23.50;24.01
9855;BME280;4966;48.112;9.282;2023-02-21T12:54:37;94841.63;;;20.66;28.26
9855;BME280;4966;48.112;9.282;2023-02-21T12:58:09;94838.72;;;21.12;27.75
9855;BME280;4966;48.112;9.282;2023-02-21T13:00:22;94832.19;;;20.34;26.61
9855;BME280;4966;48.112;9.282;2023-02-21T13:03:03;94833.41;;;20.08;27.90
9855;BME280;4966;48.112;9.282;2023-02-21T13:05:38;94820.00;;;20.14;27.63
9855;BME280;4966;48.112;9.282;2023-02-21T13:13:20;94805.56;;;18.86;28.05
9855;BME280;4966;48.112;9.282;2023-02-21T13:15:48;94796.28;;;19.48;26.76
9855;BME280;4966;48.112;9.282;2023-02-21T13:20:42;94793.88;;;19.18;26.94
9855;BME280;4966;48.112;9.282;2023-02-21T13:29:21;94794.72;;;20.26;26.20
9855;BME280;4966;48.112;9.282;2023-02-21T13:32:16;94782.91;;;20.08;26.36
9855;BME280;4966;48.112;9.282;2023-02-21T13:34:44;94782.50;;;20.16;25.06
9855;BME280;4966;48.112;9.282;2023-02-21T13:37:17;94772.66;;;20.01;25.91
9855;BME280;4966;48.112;9.282;2023-02-21T13:39:48;94771.06;;;20.14;25.32
9855;BME280;4966;48.112;9.282;2023-02-21T13:42:18;94767.88;;;20.34;25.01
9855;BME280;4966;48.112;9.282;2023-02-21T13:44:47;94765.88;;;20.45;26.09
9855;BME280;4966;48.112;9.282;2023-02-21T13:47:19;94753.00;;;21.01;25.64
9855;BME280;4966;48.112;9.282;2023-02-21T13:49:48;94758.16;;;20.99;24.64
9855;BME280;4966;48.112;9.282;2023-02-21T14:08:48;94728.84;;;22.14;24.70
9855;BME280;4966;48.112;9.282;2023-02-21T14:11:19;94726.88;;;21.69;24.78
9855;BME280;4966;48.112;9.282;2023-02-21T14:13:53;94729.16;;;21.81;24.79
9855;BME280;4966;48.112;9.282;2023-02-21T14:16:24;94732.06;;;22.08;25.27
9855;BME280;4966;48.112;9.282;2023-02-21T14:18:55;94725.78;;;22.46;25.47
9855;BME280;4966;48.112;9.282;2023-02-21T14:21:34;94722.03;;;22.22;24.13
9855;BME280;4966;48.112;9.282;2023-02-21T14:29:08;94716.41;;;21.39;26.04
9855;BME280;4966;48.112;9.282;2023-02-21T14:34:12;94712.22;;;22.51;24.89
9855;BME280;4966;48.112;9.282;2023-02-21T14:36:39;94713.59;;;24.26;23.29
9855;BME280;4966;48.112;9.282;2023-02-21T14:39:06;94707.34;;;24.82;21.57
9855;BME280;4966;48.112;9.282;2023-02-21T14:44:18;94702.78;;;24.52;22.82
9855;BME280;4966;48.112;9.282;2023-02-21T14:52:36;94688.22;;;28.75;18.14
9855;BME280;4966;48.112;9.282;2023-02-21T15:00:33;94672.22;;;32.26;15.13
9855;BME280;4966;48.112;9.282;2023-02-21T15:03:20;94671.09;;;32.86;14.69
9855;BME280;4966;48.112;9.282;2023-02-21T15:08:20;94672.63;;;30.82;15.63
9855;BME280;4966;48.112;9.282;2023-02-21T15:10:49;94665.25;;;31.03;15.96
9855;BME280;4966;48.112;9.282;2023-02-21T15:15:46;94666.50;;;32.35;15.03
9855;BME280;4966;48.112;9.282;2023-02-21T15:18:24;94663.97;;;32.61;14.63
9855;BME280;4966;48.112;9.282;2023-02-21T15:23:39;94669.13;;;31.14;15.13
9855;BME280;4966;48.112;9.282;2023-02-21T15:28:43;94662.72;;;28.51;17.56
9855;BME280;4966;48.112;9.282;2023-02-21T15:31:10;94666.63;;;28.53;17.93
9855;BME280;4966;48.112;9.282;2023-02-21T15:33:41;94662.75;;;28.03;18.23
9855;BME280;4966;48.112;9.282;2023-02-21T15:36:15;94661.59;;;27.66;18.69
9855;BME280;4966;48.112;9.282;2023-02-21T15:39:09;94657.59;;;26.02;20.39
9855;BME280;4966;48.112;9.282;2023-02-21T15:47:01;94646.09;;;22.81;24.31
9855;BME280;4966;48.112;9.282;2023-02-21T15:49:31;94648.63;;;22.03;24.87
9855;BME280;4966;48.112;9.282;2023-02-21T15:52:00;94649.66;;;21.33;26.33
9855;BME280;4966;48.112;9.282;2023-02-21T15:54:32;94648.56;;;20.64;27.07
9855;BME280;4966;48.112;9.282;2023-02-21T15:57:19;94652.41;;;19.79;28.45
9855;BME280;4966;48.112;9.282;2023-02-21T15:59:55;94648.47;;;19.58;28.91
9855;BME280;4966;48.112;9.282;2023-02-21T16:02:22;94644.97;;;19.22;29.55
9855;BME280;4966;48.112;9.282;2023-02-21T16:04:50;94643.75;;;18.80;30.95
9855;BME280;4966;48.112;9.282;2023-02-21T16:07:25;94640.06;;;18.33;32.12
9855;BME280;4966;48.112;9.282;2023-02-21T16:10:00;94636.72;;;17.84;33.09
9855;BME280;4966;48.112;9.282;2023-02-21T16:15:05;94650.31;;;17.04;35.39
9855;BME280;4966;48.112;9.282;2023-02-21T16:17:37;94640.91;;;16.67;36.06
9855;BME280;4966;48.112;9.282;2023-02-21T16:20:18;94634.78;;;16.40;36.13
9855;BME280;4966;48.112;9.282;2023-02-21T16:22:46;94632.53;;;16.15;36.94
9855;BME280;4966;48.112;9.282;2023-02-21T16:25:17;94631.66;;;15.78;37.72
9855;BME280;4966;48.112;9.282;2023-02-21T16:27:52;94640.28;;;15.49;38.23
9855;BME280;4966;48.112;9.282;2023-02-21T16:30:28;94637.97;;;15.25;38.76
9855;BME280;4966;48.112;9.282;2023-02-21T16:33:00;94635.69;;;15.04;40.06
9855;BME280;4966;48.112;9.282;2023-02-21T16:35:26;94634.03;;;14.73;40.88